KCRE/CRE METAR and TAF weather

Enter ICAO airport designator
Station Type Date Time Source
KCRE METAR 2024/04/15 09:53 UTC NOAA

KCRE 150953Z AUTO 22007KT 10SM CLR 17/12 A2999 RMK AO1 SLP156 T01720122


Station Type Date Time Source
KCRE Decoded METAR 2024/04/15 09:53 UTC NOAA

N. MYRTLE BCH.GRAND STRAND, SC, United States (KCRE) 33-49N 078-43W 10M
Apr 15, 2024 - 05:53 AM EDT / 2024.04.15 0953 UTC
Wind: from the SW (220 degrees) at 8 MPH (7 KT):0
Visibility: 10 mile(s):0
Sky conditions: clear
Temperature: 63.0 F (17.2 C)
Dew Point: 54.0 F (12.2 C)
Relative Humidity: 72%
Pressure (altimeter): 29.99 in. Hg (1015 hPa)
ob: KCRE 150953Z AUTO 22007KT 10SM CLR 17/12 A2999 RMK AO1 SLP156 T01720122
cycle: 10

Station Type Date Time Source
KCRE TAF 2024/04/15 06:22 UTC NOAA